Bulktec — VRFJ3 — position and weather

sailwx.info

Track history (hours):
 
Tides and Currents Weather Stations Pressure Air Temp Water Temp Dewpoint Dewpoint Depression Visibility Wind Speed Wind Dir Waves Ship Positions

Bulktec

Last reported at 2014-Dec-20 20:33 UTC. Time now 2014-Dec-21 22:15 UTC.
Position N 36°00' W 005°14'.

Length 179 m; draft 6.6 m.

Type: Cargo ship. MMSI: 3699076.

Date/timePositionNaut miles runAvg speedWind from/ knotsBaromVisibWave heightAir tempDewpointWater temp
2014-Dec-20 20:33N 36°00' W 005°14'9 8.2
2014-Dec-20 19:28N 36°06' W 005°22'0 0.4
2014-Dec-20 18:21N 36°06' W 005°21'0 0.0
2014-Dec-20 17:33N 36°06' W 005°21'0 0.1
2014-Dec-20 16:33N 36°06' W 005°21'0 0.1
2014-Dec-20 15:32N 36°06' W 005°21'0 0.0
2014-Dec-20 14:33N 36°06' W 005°21'0 0.1
2014-Dec-20 13:23N 36°06' W 005°21'0 0.0
2014-Dec-20 12:27N 36°06' W 005°21'0 0.1
2014-Dec-20 11:29N 36°06' W 005°21'1 0.8
2014-Dec-20 10:15N 36°05' W 005°22'1 1.1
2014-Dec-20 09:33N 36°05' W 005°21'8 3.8
2014-Dec-20 07:21N 36°10' W 005°12'6 3.2
2014-Dec-20 05:23N 36°04' W 005°17'7 8.0
2014-Dec-20 04:32N 35°59' W 005°22'  
2014-Dec-17 02:33N 35°00' W 021°10'4310.6
2014-Dec-16 22:27N 34°53' W 022°02'1210.3
2014-Dec-16 21:20N 34°51' W 022°16'1310.5
2014-Dec-16 20:05N 34°49' W 022°32'710.9
2014-Dec-16 19:29N 34°48' W 022°40'1112.3
2014-Dec-16 18:34N 34°46' W 022°54'3510.6
2014-Dec-16 15:17N 34°40' W 023°35'29 9.8
2014-Dec-16 12:16N 34°35' W 024°10'27 9.8
2014-Dec-16 09:30N 34°31' W 024°43'  
Track history (hours):
 
Tides and Currents Weather Stations Pressure Air Temp Water Temp Dewpoint Dewpoint Depression Visibility Wind Speed Wind Dir Waves Ship Positions

Bulktec

Last reported at 2014-Dec-20 20:33 UTC. Time now 2014-Dec-21 22:15 UTC.
Position N 36°00' W 005°14'.

Length 179 m; draft 6.6 m.

Type: Cargo ship. MMSI: 3699076.

Date/timePositionNaut miles runAvg speedWind from/ knotsBaromVisibWave heightAir tempDewpointWater temp
2014-Dec-20 20:33N 36°00' W 005°14'9 8.2
2014-Dec-20 19:28N 36°06' W 005°22'0 0.4
2014-Dec-20 18:21N 36°06' W 005°21'0 0.0
2014-Dec-20 17:33N 36°06' W 005°21'0 0.1
2014-Dec-20 16:33N 36°06' W 005°21'0 0.1
2014-Dec-20 15:32N 36°06' W 005°21'0 0.0
2014-Dec-20 14:33N 36°06' W 005°21'0 0.1
2014-Dec-20 13:23N 36°06' W 005°21'0 0.0
2014-Dec-20 12:27N 36°06' W 005°21'0 0.1
2014-Dec-20 11:29N 36°06' W 005°21'1 0.8
2014-Dec-20 10:15N 36°05' W 005°22'1 1.1
2014-Dec-20 09:33N 36°05' W 005°21'8 3.8
2014-Dec-20 07:21N 36°10' W 005°12'6 3.2
2014-Dec-20 05:23N 36°04' W 005°17'7 8.0
2014-Dec-20 04:32N 35°59' W 005°22'  
2014-Dec-17 02:33N 35°00' W 021°10'4310.6
2014-Dec-16 22:27N 34°53' W 022°02'1210.3
2014-Dec-16 21:20N 34°51' W 022°16'1310.5
2014-Dec-16 20:05N 34°49' W 022°32'710.9
2014-Dec-16 19:29N 34°48' W 022°40'1112.3
2014-Dec-16 18:34N 34°46' W 022°54'3510.6
2014-Dec-16 15:17N 34°40' W 023°35'29 9.8
2014-Dec-16 12:16N 34°35' W 024°10'27 9.8
2014-Dec-16 09:30N 34°31' W 024°43'  

Dump ship's entire track history